Terminal Aerodrome Forecast
Issued by NWS

Home | Current Version | Previous Version | Text Only | Print | Product List | Glossary On
Versions: 1 2 3 4 5 6 7 8 9 10 11 12 13 14
954
FTUS43 KAPX 251126
TAFTVC
TAF
KTVC 251126Z 2512/2612 30004KT P6SM FEW250
     FM251600 29008KT P6SM FEW250
     FM260100 29004KT P6SM SKC
     FM260300 00000KT P6SM SKC=

USA.gov is the U.S. government's official web portal to all federal, state and local government web resources and services.